Time,TemperatureF,DewpointF,PressureIn,WindDirection,WindDirectionDegrees,WindSpeedMPH,WindSpeedGustMPH,Humidity,HourlyPrecipIn,Conditions,Clouds,dailyrainin,SoftwareType,DateUTC
2013-05-25 00:00:00,49.3,38.0,30.24,SSE,161,0.0,0.0,65,0.00,,---,0.00,VWS V14.01,2013-05-25 04:00:00,
2013-05-25 00:01:00,49.3,38.0,30.24,SSE,161,0.0,0.0,65,0.00,,---,0.00,VWS V14.01,2013-05-25 04:01:00,
2013-05-25 00:06:00,49.5,38.2,30.24,SSE,161,0.0,0.0,65,0.00,,---,0.00,VWS V14.01,2013-05-25 04:06:00,
2013-05-25 00:11:00,49.7,38.4,30.24,SSE,161,0.0,2.0,65,0.00,,---,0.00,VWS V14.01,2013-05-25 04:11:00,
2013-05-25 00:16:00,49.7,38.0,30.24,SSE,161,0.0,2.0,64,0.00,,---,0.00,VWS V14.01,2013-05-25 04:16:00,
2013-05-25 00:21:00,49.7,39.2,30.24,SSE,161,0.0,2.0,67,0.00,,---,0.00,VWS V14.01,2013-05-25 04:21:00,
2013-05-25 00:26:00,49.5,38.6,30.24,SSE,161,0.0,2.0,66,0.00,,---,0.00,VWS V14.01,2013-05-25 04:26:00,
2013-05-25 00:30:00,49.4,38.9,30.24,SSE,161,0.0,2.0,67,0.00,,---,0.00,VWS V14.01,2013-05-25 04:30:00,
2013-05-25 00:31:00,49.3,38.0,30.24,SSE,161,0.0,0.0,65,0.00,,---,0.00,VWS V14.01,2013-05-25 04:31:00,
2013-05-25 00:36:00,49.2,38.0,30.24,SSE,162,2.0,4.0,65,0.00,,---,0.00,VWS V14.01,2013-05-25 04:36:00,
2013-05-25 00:41:00,49.0,39.7,30.24,West,265,1.0,4.0,70,0.00,,---,0.00,VWS V14.01,2013-05-25 04:41:00,
2013-05-25 00:46:00,48.9,38.1,30.24,NW,323,2.0,6.0,66,0.00,,---,0.00,VWS V14.01,2013-05-25 04:46:00,
2013-05-25 00:51:00,48.7,38.6,30.24,NW,323,0.0,6.0,68,0.00,,---,0.00,VWS V14.01,2013-05-25 04:51:00,
2013-05-25 00:56:00,48.6,38.5,30.24,NW,321,0.0,6.0,68,0.00,,---,0.00,VWS V14.01,2013-05-25 04:56:00,
2013-05-25 01:00:00,48.5,38.1,30.24,NW,321,0.0,6.0,67,0.00,,---,0.00,VWS V14.01,2013-05-25 05:00:00,
2013-05-25 01:01:00,48.6,37.8,30.24,NW,308,4.0,6.0,66,0.00,,---,0.00,VWS V14.01,2013-05-25 05:01:00,
2013-05-25 01:06:00,48.7,37.9,30.24,NW,304,3.0,6.0,66,0.00,,---,0.00,VWS V14.01,2013-05-25 05:06:00,
2013-05-25 01:11:00,49.2,37.2,30.24,NW,318,6.0,10.0,63,0.00,,---,0.00,VWS V14.01,2013-05-25 05:11:00,
2013-05-25 01:16:00,49.7,37.6,30.24,NW,319,2.0,10.0,63,0.00,,---,0.00,VWS V14.01,2013-05-25 05:16:00,
2013-05-25 01:21:00,49.8,37.7,30.24,NW,319,2.0,10.0,63,0.00,,---,0.00,VWS V14.01,2013-05-25 05:21:00,
2013-05-25 01:26:00,49.8,38.1,30.24,North,351,2.0,10.0,64,0.00,,---,0.00,VWS V14.01,2013-05-25 05:26:00,
2013-05-25 01:30:00,49.7,37.2,30.24,North,351,0.0,10.0,62,0.00,,---,0.00,VWS V14.01,2013-05-25 05:30:00,
2013-05-25 01:31:00,49.8,37.3,30.24,ENE,69,0.0,3.0,62,0.00,,---,0.00,VWS V14.01,2013-05-25 05:31:00,
2013-05-25 01:36:00,49.8,37.3,30.24,NE,44,0.0,4.0,62,0.00,,---,0.00,VWS V14.01,2013-05-25 05:36:00,
2013-05-25 01:41:00,49.9,37.8,30.24,NE,44,0.0,4.0,63,0.00,,---,0.00,VWS V14.01,2013-05-25 05:41:00,
2013-05-25 01:46:00,49.6,38.3,30.24,NE,44,0.0,4.0,65,0.00,,---,0.00,VWS V14.01,2013-05-25 05:46:00,
2013-05-25 01:51:00,49.4,36.9,30.24,ENE,74,3.0,4.0,62,0.00,,---,0.00,VWS V14.01,2013-05-25 05:51:00,
2013-05-25 01:56:00,49.5,37.4,30.24,ENE,74,0.0,4.0,63,0.00,,---,0.00,VWS V14.01,2013-05-25 05:56:00,
2013-05-25 02:00:00,49.4,37.3,30.24,ENE,74,2.0,4.0,63,0.00,,---,0.00,VWS V14.01,2013-05-25 06:00:00,
2013-05-25 02:01:00,49.4,36.9,30.24,NNE,21,3.0,5.0,62,0.00,,---,0.00,VWS V14.01,2013-05-25 06:01:00,
2013-05-25 02:06:00,49.2,37.6,30.24,NNE,21,0.0,5.0,64,0.00,,---,0.00,VWS V14.01,2013-05-25 06:06:00,
2013-05-25 02:11:00,49.2,37.2,30.24,NE,34,0.0,10.0,63,0.00,,---,0.00,VWS V14.01,2013-05-25 06:11:00,
2013-05-25 02:16:00,49.5,37.0,30.24,NNW,332,2.0,10.0,62,0.00,,---,0.00,VWS V14.01,2013-05-25 06:16:00,
2013-05-25 02:21:00,49.5,36.6,30.24,North,5,0.0,10.0,61,0.00,,---,0.00,VWS V14.01,2013-05-25 06:21:00,
2013-05-25 02:26:00,49.6,36.7,30.24,North,5,2.0,10.0,61,0.00,,---,0.00,VWS V14.01,2013-05-25 06:26:00,
2013-05-25 02:30:00,49.6,36.7,30.24,North,5,0.0,10.0,61,0.00,,---,0.00,VWS V14.01,2013-05-25 06:30:00,
2013-05-25 02:31:00,49.6,36.7,30.24,North,5,0.0,2.0,61,0.00,,---,0.00,VWS V14.01,2013-05-25 06:31:00,
2013-05-25 02:36:00,49.4,36.5,30.24,North,5,0.0,3.0,61,0.00,,---,0.00,VWS V14.01,2013-05-25 06:36:00,
2013-05-25 02:41:00,49.2,38.3,30.24,North,5,1.0,3.0,66,0.00,,---,0.00,VWS V14.01,2013-05-25 06:41:00,
2013-05-25 02:46:00,48.8,37.2,30.24,North,5,0.0,3.0,64,0.00,,---,0.00,VWS V14.01,2013-05-25 06:46:00,
2013-05-25 02:51:00,48.4,37.2,30.24,North,5,0.0,3.0,65,0.00,,---,0.00,VWS V14.01,2013-05-25 06:51:00,
2013-05-25 02:56:00,48.0,37.6,30.25,North,5,0.0,3.0,67,0.00,,---,0.00,VWS V14.01,2013-05-25 06:56:00,
2013-05-25 03:00:00,47.9,36.7,30.25,North,5,0.0,3.0,65,0.00,,---,0.00,VWS V14.01,2013-05-25 07:00:00,
2013-05-25 03:01:00,47.8,36.2,30.25,North,5,0.0,2.0,64,0.00,,---,0.00,VWS V14.01,2013-05-25 07:01:00,
2013-05-25 03:06:00,47.7,37.3,30.25,North,5,0.0,3.0,67,0.00,,---,0.00,VWS V14.01,2013-05-25 07:06:00,
2013-05-25 03:11:00,47.5,36.3,30.25,North,5,0.0,3.0,65,0.00,,---,0.00,VWS V14.01,2013-05-25 07:11:00,
2013-05-25 03:16:00,47.5,35.5,30.25,North,5,0.0,3.0,63,0.00,,---,0.00,VWS V14.01,2013-05-25 07:16:00,
2013-05-25 03:21:00,47.6,36.0,30.25,North,5,0.0,3.0,64,0.00,,---,0.00,VWS V14.01,2013-05-25 07:21:00,
2013-05-25 03:26:00,47.6,36.8,30.25,North,5,0.0,3.0,66,0.00,,---,0.00,VWS V14.01,2013-05-25 07:26:00,
2013-05-25 03:30:00,47.4,36.6,30.25,North,5,0.0,3.0,66,0.00,,---,0.00,VWS V14.01,2013-05-25 07:30:00,
2013-05-25 03:31:00,47.3,37.3,30.25,North,5,0.0,0.0,68,0.00,,---,0.00,VWS V14.01,2013-05-25 07:31:00,
2013-05-25 03:36:00,46.9,36.2,30.25,North,5,0.0,0.0,66,0.00,,---,0.00,VWS V14.01,2013-05-25 07:36:00,
2013-05-25 03:41:00,46.8,36.4,30.25,North,5,0.0,0.0,67,0.00,,---,0.00,VWS V14.01,2013-05-25 07:41:00,
2013-05-25 03:46:00,46.7,37.5,30.25,NE,34,6.0,6.0,70,0.00,,---,0.00,VWS V14.01,2013-05-25 07:46:00,
2013-05-25 03:51:00,46.5,36.2,30.25,NW,308,0.0,7.0,67,0.00,,---,0.00,VWS V14.01,2013-05-25 07:51:00,
2013-05-25 03:56:00,46.5,35.8,30.26,NW,308,0.0,7.0,66,0.00,,---,0.00,VWS V14.01,2013-05-25 07:56:00,
2013-05-25 04:00:00,46.5,34.2,30.26,NW,308,0.0,7.0,62,0.00,,---,0.00,VWS V14.01,2013-05-25 08:00:00,
2013-05-25 04:01:00,46.6,35.1,30.26,NW,308,0.0,0.0,64,0.00,,---,0.00,VWS V14.01,2013-05-25 08:01:00,
2013-05-25 04:06:00,46.7,34.4,30.26,NW,308,0.0,1.0,62,0.00,,---,0.00,VWS V14.01,2013-05-25 08:06:00,
2013-05-25 04:11:00,46.9,34.6,30.27,NW,308,0.0,1.0,62,0.00,,---,0.00,VWS V14.01,2013-05-25 08:11:00,
2013-05-25 04:16:00,47.1,34.8,30.27,NW,308,0.0,1.0,62,0.00,,---,0.00,VWS V14.01,2013-05-25 08:16:00,
2013-05-25 04:21:00,47.2,34.9,30.27,NW,308,0.0,1.0,62,0.00,,---,0.00,VWS V14.01,2013-05-25 08:21:00,
2013-05-25 04:26:00,46.9,36.2,30.28,NW,308,0.0,3.0,66,0.00,,---,0.00,VWS V14.01,2013-05-25 08:26:00,
2013-05-25 04:30:00,46.6,36.2,30.28,NW,308,0.0,3.0,67,0.00,,---,0.00,VWS V14.01,2013-05-25 08:30:00,
2013-05-25 04:31:00,46.3,36.3,30.28,NW,308,0.0,0.0,68,0.00,,---,0.00,VWS V14.01,2013-05-25 08:31:00,
2013-05-25 04:36:00,45.7,35.8,30.27,NW,308,0.0,0.0,68,0.00,,---,0.00,VWS V14.01,2013-05-25 08:36:00,
2013-05-25 04:41:00,45.1,36.6,30.28,NW,308,0.0,0.0,72,0.00,,---,0.00,VWS V14.01,2013-05-25 08:41:00,
2013-05-25 04:46:00,44.6,35.8,30.27,NW,308,0.0,0.0,71,0.00,,---,0.00,VWS V14.01,2013-05-25 08:46:00,
2013-05-25 04:51:00,44.4,37.0,30.28,NW,308,2.0,3.0,75,0.00,,---,0.00,VWS V14.01,2013-05-25 08:51:00,
2013-05-25 04:56:00,43.9,36.8,30.28,NW,308,0.0,3.0,76,0.00,,---,0.00,VWS V14.01,2013-05-25 08:56:00,
2013-05-25 05:00:00,43.5,36.5,30.28,NW,308,0.0,3.0,76,0.00,,---,0.00,VWS V14.01,2013-05-25 09:00:00,
2013-05-25 05:01:00,43.3,36.6,30.28,NW,308,0.0,0.0,77,0.00,,---,0.00,VWS V14.01,2013-05-25 09:01:00,
2013-05-25 05:06:00,42.9,35.2,30.28,NW,311,4.0,5.0,74,0.00,,---,0.00,VWS V14.01,2013-05-25 09:06:00,
2013-05-25 05:11:00,42.7,36.0,30.29,NW,314,0.0,5.0,77,0.00,,---,0.00,VWS V14.01,2013-05-25 09:11:00,
2013-05-25 05:16:00,42.4,36.7,30.29,NW,314,0.0,5.0,80,0.00,,---,0.00,VWS V14.01,2013-05-25 09:16:00,
2013-05-25 05:21:00,42.1,36.1,30.29,NW,314,0.0,5.0,79,0.00,,---,0.00,VWS V14.01,2013-05-25 09:21:00,
2013-05-25 05:26:00,41.7,36.3,30.28,NW,314,3.0,5.0,81,0.00,,---,0.00,VWS V14.01,2013-05-25 09:26:00,
2013-05-25 05:30:00,41.5,36.1,30.28,NW,314,0.0,5.0,81,0.00,,---,0.00,VWS V14.01,2013-05-25 09:30:00,
2013-05-25 05:31:00,41.4,36.3,30.29,NW,314,2.0,3.0,82,0.00,,---,0.00,VWS V14.01,2013-05-25 09:31:00,
2013-05-25 05:36:00,41.1,36.0,30.29,NW,313,2.0,6.0,82,0.00,,---,0.00,VWS V14.01,2013-05-25 09:36:00,
2013-05-25 05:41:00,40.8,36.3,30.29,NW,313,0.0,6.0,84,0.00,,---,0.00,VWS V14.01,2013-05-25 09:41:00,
2013-05-25 05:46:00,40.7,36.2,30.29,NW,313,0.0,6.0,84,0.00,,---,0.00,VWS V14.01,2013-05-25 09:46:00,
2013-05-25 05:51:00,40.5,36.3,30.30,NNW,344,0.0,6.0,85,0.00,,---,0.00,VWS V14.01,2013-05-25 09:51:00,
2013-05-25 05:56:00,40.6,34.6,30.30,West,281,1.0,6.0,79,0.00,,---,0.00,VWS V14.01,2013-05-25 09:56:00,
2013-05-25 06:00:00,40.9,35.8,30.30,West,281,0.0,6.0,82,0.00,,---,0.00,VWS V14.01,2013-05-25 10:00:00,
2013-05-25 06:01:00,41.0,35.3,30.30,West,281,0.0,0.0,80,0.00,,---,0.00,VWS V14.01,2013-05-25 10:01:00,
2013-05-25 06:06:00,41.3,35.0,30.30,WNW,284,3.0,7.0,78,0.00,,---,0.00,VWS V14.01,2013-05-25 10:06:00,
2013-05-25 06:11:00,42.3,32.9,30.30,WNW,290,3.0,7.0,69,0.00,,---,0.00,VWS V14.01,2013-05-25 10:11:00,
2013-05-25 06:16:00,43.2,32.6,30.31,NW,310,0.0,10.0,66,0.00,,---,0.00,VWS V14.01,2013-05-25 10:16:00,
2013-05-25 06:21:00,44.1,34.6,30.31,WNW,292,1.0,10.0,69,0.00,,---,0.00,VWS V14.01,2013-05-25 10:21:00,
2013-05-25 06:26:00,44.2,34.0,30.31,WNW,292,0.0,10.0,67,0.00,,---,0.00,VWS V14.01,2013-05-25 10:26:00,
2013-05-25 06:30:00,44.3,33.3,30.31,WNW,292,3.0,10.0,65,0.00,,---,0.00,VWS V14.01,2013-05-25 10:30:00,
2013-05-25 06:31:00,44.4,33.4,30.32,WNW,292,0.0,5.0,65,0.00,,---,0.00,VWS V14.01,2013-05-25 10:31:00,
2013-05-25 06:36:00,44.6,33.2,30.32,WNW,292,0.0,5.0,64,0.00,,---,0.00,VWS V14.01,2013-05-25 10:36:00,
2013-05-25 06:41:00,44.9,32.7,30.31,WNW,292,3.0,5.0,62,0.00,,---,0.00,VWS V14.01,2013-05-25 10:41:00,
2013-05-25 06:46:00,45.2,33.8,30.31,WNW,292,2.0,5.0,64,0.00,,---,0.00,VWS V14.01,2013-05-25 10:46:00,
2013-05-25 06:51:00,45.2,33.4,30.31,WNW,291,5.0,6.0,63,0.00,,---,0.00,VWS V14.01,2013-05-25 10:51:00,
2013-05-25 06:56:00,45.3,30.1,30.31,WNW,291,2.0,6.0,55,0.00,,---,0.00,VWS V14.01,2013-05-25 10:56:00,
2013-05-25 07:00:00,45.5,32.0,30.31,WNW,291,2.0,6.0,59,0.00,,---,0.00,VWS V14.01,2013-05-25 11:00:00,
2013-05-25 07:01:00,45.6,32.9,30.31,WNW,291,0.0,3.0,61,0.00,,---,0.00,VWS V14.01,2013-05-25 11:01:00,
2013-05-25 07:06:00,46.1,32.2,30.31,NW,307,3.0,7.0,58,0.00,,---,0.00,VWS V14.01,2013-05-25 11:06:00,
2013-05-25 07:11:00,46.4,30.2,30.31,WNW,288,4.0,8.0,53,0.00,,---,0.00,VWS V14.01,2013-05-25 11:11:00,
2013-05-25 07:16:00,46.9,29.2,30.32,WNW,285,4.0,9.0,50,0.00,,---,0.00,VWS V14.01,2013-05-25 11:16:00,
2013-05-25 07:21:00,47.3,30.6,30.32,NW,306,2.0,9.0,52,0.00,,---,0.00,VWS V14.01,2013-05-25 11:21:00,
2013-05-25 07:26:00,47.6,29.9,30.32,NW,310,2.0,9.0,50,0.00,,---,0.00,VWS V14.01,2013-05-25 11:26:00,
2013-05-25 07:30:00,47.7,31.9,30.32,NW,311,5.0,9.0,54,0.00,,---,0.00,VWS V14.01,2013-05-25 11:30:00,
2013-05-25 07:31:00,47.8,31.0,30.32,NW,312,4.0,6.0,52,0.00,,---,0.00,VWS V14.01,2013-05-25 11:31:00,
2013-05-25 07:36:00,47.9,29.7,30.32,WNW,300,1.0,6.0,49,0.00,,---,0.00,VWS V14.01,2013-05-25 11:36:00,
2013-05-25 07:41:00,48.2,30.9,30.32,NW,306,7.0,8.0,51,0.00,,---,0.00,VWS V14.01,2013-05-25 11:41:00,
2013-05-25 07:46:00,48.4,31.1,30.32,NW,319,1.0,8.0,51,0.00,,---,0.00,VWS V14.01,2013-05-25 11:46:00,
2013-05-25 07:51:00,48.6,30.8,30.32,NW,320,3.0,8.0,50,0.00,,---,0.00,VWS V14.01,2013-05-25 11:51:00,
2013-05-25 07:56:00,48.9,31.1,30.31,NNW,336,2.0,8.0,50,0.00,,---,0.00,VWS V14.01,2013-05-25 11:56:00,
2013-05-25 08:00:00,49.0,31.2,30.31,NNW,336,1.0,8.0,50,0.00,,---,0.00,VWS V14.01,2013-05-25 12:00:00,
2013-05-25 08:01:00,49.2,32.3,30.31,NW,312,3.0,6.0,52,0.00,,---,0.00,VWS V14.01,2013-05-25 12:01:00,
2013-05-25 08:06:00,49.5,30.6,30.32,NW,317,5.0,6.0,48,0.00,,---,0.00,VWS V14.01,2013-05-25 12:06:00,
2013-05-25 08:11:00,49.9,29.4,30.32,NNW,338,4.0,8.0,45,0.00,,---,0.00,VWS V14.01,2013-05-25 12:11:00,
2013-05-25 08:16:00,50.4,28.8,30.32,WNW,302,4.0,8.0,43,0.00,,---,0.00,VWS V14.01,2013-05-25 12:16:00,
2013-05-25 08:21:00,50.8,29.1,30.32,NW,321,7.0,8.0,43,0.00,,---,0.00,VWS V14.01,2013-05-25 12:21:00,
2013-05-25 08:26:00,51.2,29.5,30.32,NNW,337,0.0,8.0,43,0.00,,---,0.00,VWS V14.01,2013-05-25 12:26:00,
2013-05-25 08:30:00,51.5,29.2,30.32,NNW,337,0.0,8.0,42,0.00,,---,0.00,VWS V14.01,2013-05-25 12:30:00,
2013-05-25 08:31:00,51.6,28.1,30.32,NW,323,1.0,5.0,40,0.00,,---,0.00,VWS V14.01,2013-05-25 12:31:00,
2013-05-25 08:36:00,52.1,29.1,30.32,NW,309,4.0,6.0,41,0.00,,---,0.00,VWS V14.01,2013-05-25 12:36:00,
2013-05-25 08:41:00,52.4,28.8,30.32,WNW,300,4.0,8.0,40,0.00,,---,0.00,VWS V14.01,2013-05-25 12:41:00,
2013-05-25 08:46:00,52.5,28.3,30.33,NW,311,3.0,8.0,39,0.00,,---,0.00,VWS V14.01,2013-05-25 12:46:00,
2013-05-25 08:51:00,52.8,28.5,30.33,WNW,302,4.0,8.0,39,0.00,,---,0.00,VWS V14.01,2013-05-25 12:51:00,
2013-05-25 08:56:00,53.1,28.8,30.33,NW,311,6.0,8.0,39,0.00,,---,0.00,VWS V14.01,2013-05-25 12:56:00,
2013-05-25 09:00:00,53.2,27.6,30.32,NNW,337,0.0,8.0,37,0.00,,---,0.00,VWS V14.01,2013-05-25 13:00:00,
2013-05-25 09:01:00,53.3,28.4,30.32,NNW,342,0.0,0.0,38,0.00,,---,0.00,VWS V14.01,2013-05-25 13:01:00,
2013-05-25 09:06:00,53.5,28.5,30.32,WNW,285,0.0,0.0,38,0.00,,---,0.00,VWS V14.01,2013-05-25 13:06:00,
2013-05-25 09:11:00,53.9,27.6,30.32,WNW,289,0.0,0.0,36,0.00,,---,0.00,VWS V14.01,2013-05-25 13:11:00,
2013-05-25 09:16:00,54.1,26.4,30.33,NW,311,0.0,0.0,34,0.00,,---,0.00,VWS V14.01,2013-05-25 13:16:00,
2013-05-25 09:21:00,54.4,28.7,30.33,NW,312,0.0,0.0,37,0.00,,---,0.00,VWS V14.01,2013-05-25 13:21:00,
2013-05-25 09:26:00,54.6,26.8,30.33,NNW,333,0.0,0.0,34,0.00,,---,0.00,VWS V14.01,2013-05-25 13:26:00,
2013-05-25 09:30:00,54.8,27.7,30.33,NNW,333,0.0,0.0,35,0.00,,---,0.00,VWS V14.01,2013-05-25 13:30:00,
2013-05-25 09:31:00,54.9,28.5,30.33,NNW,333,0.0,0.0,36,0.00,,---,0.00,VWS V14.01,2013-05-25 13:31:00,
2013-05-25 09:36:00,55.3,26.0,30.32,NW,316,0.0,0.0,32,0.00,,---,0.00,VWS V14.01,2013-05-25 13:36:00,
2013-05-25 09:41:00,55.7,29.9,30.32,NW,316,0.0,0.0,37,0.00,,---,0.00,VWS V14.01,2013-05-25 13:41:00,
2013-05-25 09:46:00,56.1,28.1,30.32,North,355,0.0,0.0,34,0.00,,---,0.00,VWS V14.01,2013-05-25 13:46:00,
2013-05-25 09:51:00,56.5,27.8,30.32,NNW,327,0.0,0.0,33,0.00,,---,0.00,VWS V14.01,2013-05-25 13:51:00,
2013-05-25 09:56:00,56.9,24.1,30.32,NW,317,0.0,0.0,28,0.00,,---,0.00,VWS V14.01,2013-05-25 13:56:00,
2013-05-25 10:00:00,57.1,27.5,30.32,NW,305,0.0,0.0,32,0.00,,---,0.00,VWS V14.01,2013-05-25 14:00:00,
2013-05-25 10:01:00,57.4,29.3,30.32,WNW,302,0.0,0.0,34,0.00,,---,0.00,VWS V14.01,2013-05-25 14:01:00,
2013-05-25 10:06:00,57.7,24.8,30.32,NW,319,0.0,0.0,28,0.00,,---,0.00,VWS V14.01,2013-05-25 14:06:00,
2013-05-25 10:11:00,57.9,26.7,30.32,NNW,339,0.0,0.0,30,0.00,,---,0.00,VWS V14.01,2013-05-25 14:11:00,
2013-05-25 10:16:00,58.1,24.3,30.32,NNW,348,0.0,0.0,27,0.00,,---,0.00,VWS V14.01,2013-05-25 14:16:00,
2013-05-25 10:21:00,58.2,27.7,30.32,NNW,331,0.0,0.0,31,0.00,,---,0.00,VWS V14.01,2013-05-25 14:21:00,
2013-05-25 10:26:00,58.8,29.0,30.31,NW,311,0.0,0.0,32,0.00,,---,0.00,VWS V14.01,2013-05-25 14:26:00,
2013-05-25 10:30:00,59.0,26.8,30.31,North,360,0.0,0.0,29,0.00,,---,0.00,VWS V14.01,2013-05-25 14:30:00,
2013-05-25 10:31:00,59.3,27.1,30.31,NW,313,0.0,0.0,29,0.00,,---,0.00,VWS V14.01,2013-05-25 14:31:00,
2013-05-25 10:36:00,59.7,29.0,30.32,North,355,0.0,0.0,31,0.00,,---,0.00,VWS V14.01,2013-05-25 14:36:00,
2013-05-25 10:41:00,59.9,32.2,30.32,NW,323,0.0,0.0,35,0.00,,---,0.00,VWS V14.01,2013-05-25 14:41:00,
2013-05-25 10:46:00,60.4,31.9,30.32,NNW,327,0.0,0.0,34,0.00,,---,0.00,VWS V14.01,2013-05-25 14:46:00,
2013-05-25 10:51:00,60.7,26.5,30.32,NW,319,0.0,0.0,27,0.00,,---,0.00,VWS V14.01,2013-05-25 14:51:00,
2013-05-25 10:56:00,60.7,29.1,30.32,North,355,0.0,0.0,30,0.00,,---,0.00,VWS V14.01,2013-05-25 14:56:00,
2013-05-25 11:00:00,60.7,27.4,30.32,NW,317,0.0,0.0,28,0.00,,---,0.00,VWS V14.01,2013-05-25 15:00:00,
2013-05-25 11:01:00,60.9,30.9,30.32,North,355,0.0,0.0,32,0.00,,---,0.00,VWS V14.01,2013-05-25 15:01:00,
2013-05-25 11:06:00,61.2,27.0,30.32,NW,315,0.0,0.0,27,0.00,,---,0.00,VWS V14.01,2013-05-25 15:06:00,
2013-05-25 11:11:00,61.4,29.7,30.32,West,271,0.0,0.0,30,0.00,,---,0.00,VWS V14.01,2013-05-25 15:11:00,
2013-05-25 11:16:00,61.5,28.1,30.32,NNE,29,0.0,0.0,28,0.00,,---,0.00,VWS V14.01,2013-05-25 15:16:00,
2013-05-25 11:21:00,61.6,29.1,30.31,NW,308,0.0,0.0,29,0.00,,---,0.00,VWS V14.01,2013-05-25 15:21:00,
2013-05-25 11:26:00,61.8,28.4,30.31,NNW,340,0.0,0.0,28,0.00,,---,0.00,VWS V14.01,2013-05-25 15:26:00,
2013-05-25 11:30:00,61.8,27.5,30.31,NNE,13,0.0,0.0,27,0.00,,---,0.00,VWS V14.01,2013-05-25 15:30:00,
2013-05-25 11:31:00,62.0,26.8,30.31,NNW,346,0.0,0.0,26,0.00,,---,0.00,VWS V14.01,2013-05-25 15:31:00,
2013-05-25 11:36:00,62.2,31.2,30.31,West,261,0.0,0.0,31,0.00,,---,0.00,VWS V14.01,2013-05-25 15:36:00,
2013-05-25 11:41:00,62.4,28.0,30.31,NNW,334,0.0,0.0,27,0.00,,---,0.00,VWS V14.01,2013-05-25 15:41:00,
2013-05-25 11:46:00,62.6,27.3,30.31,West,281,0.0,0.0,26,0.00,,---,0.00,VWS V14.01,2013-05-25 15:46:00,
2013-05-25 11:51:00,62.5,28.1,30.31,North,9,0.0,0.0,27,0.00,,---,0.00,VWS V14.01,2013-05-25 15:51:00,
2013-05-25 11:56:00,62.3,28.8,30.30,NW,313,0.0,0.0,28,0.00,,---,0.00,VWS V14.01,2013-05-25 15:56:00,
2013-05-25 12:00:00,62.4,29.8,30.31,North,360,0.0,0.0,29,0.00,,---,0.00,VWS V14.01,2013-05-25 16:00:00,
2013-05-25 12:01:00,62.5,29.0,30.31,WNW,290,0.0,0.0,28,0.00,,---,0.00,VWS V14.01,2013-05-25 16:01:00,
2013-05-25 12:06:00,62.8,31.7,30.31,North,9,0.0,0.0,31,0.00,,---,0.00,VWS V14.01,2013-05-25 16:06:00,
2013-05-25 12:11:00,63.2,32.1,30.30,NNE,22,0.0,0.0,31,0.00,,---,0.00,VWS V14.01,2013-05-25 16:11:00,
2013-05-25 12:16:00,63.6,29.0,30.30,North,355,0.0,0.0,27,0.00,,---,0.00,VWS V14.01,2013-05-25 16:16:00,
2013-05-25 12:21:00,63.6,31.6,30.30,WNW,298,0.0,0.0,30,0.00,,---,0.00,VWS V14.01,2013-05-25 16:21:00,
2013-05-25 12:26:00,63.7,29.1,30.30,NW,319,0.0,0.0,27,0.00,,---,0.00,VWS V14.01,2013-05-25 16:26:00,
2013-05-25 12:30:00,63.6,31.6,30.30,WNW,295,0.0,0.0,30,0.00,,---,0.00,VWS V14.01,2013-05-25 16:30:00,
2013-05-25 12:31:00,63.6,29.9,30.30,NW,319,0.0,0.0,28,0.00,,---,0.00,VWS V14.01,2013-05-25 16:31:00,
2013-05-25 12:36:00,63.2,30.4,30.29,NW,304,0.0,0.0,29,0.00,,---,0.00,VWS V14.01,2013-05-25 16:36:00,
2013-05-25 12:41:00,63.1,32.0,30.28,WNW,299,0.0,0.0,31,0.00,,---,0.00,VWS V14.01,2013-05-25 16:41:00,
2013-05-25 12:46:00,62.9,29.3,30.28,NW,315,0.0,0.0,28,0.00,,---,0.00,VWS V14.01,2013-05-25 16:46:00,
2013-05-25 12:51:00,62.9,30.2,30.28,WNW,296,0.0,0.0,29,0.00,,---,0.00,VWS V14.01,2013-05-25 16:51:00,
2013-05-25 12:56:00,62.9,30.2,30.28,WNW,296,0.0,0.0,29,0.00,,---,0.00,VWS V14.01,2013-05-25 16:56:00,
2013-05-25 13:00:00,63.0,29.4,30.28,NNW,336,0.0,0.0,28,0.00,,---,0.00,VWS V14.01,2013-05-25 17:00:00,
2013-05-25 13:01:00,63.0,34.2,30.28,NW,310,0.0,0.0,34,0.00,,---,0.00,VWS V14.01,2013-05-25 17:01:00,
2013-05-25 13:06:00,63.0,30.3,30.28,WNW,294,0.0,0.0,29,0.00,,---,0.00,VWS V14.01,2013-05-25 17:06:00,
2013-05-25 13:11:00,63.1,29.5,30.27,WNW,299,0.0,0.0,28,0.00,,---,0.00,VWS V14.01,2013-05-25 17:11:00,
2013-05-25 13:16:00,63.9,33.5,30.27,NNE,22,0.0,0.0,32,0.00,,---,0.00,VWS V14.01,2013-05-25 17:16:00,
2013-05-25 13:21:00,65.1,31.2,30.27,West,281,0.0,0.0,28,0.00,,---,0.00,VWS V14.01,2013-05-25 17:21:00,
2013-05-25 13:26:00,65.3,28.6,30.27,NNW,348,0.0,0.0,25,0.00,,---,0.00,VWS V14.01,2013-05-25 17:26:00,
2013-05-25 13:30:00,65.2,30.4,30.27,West,277,0.0,0.0,27,0.00,,---,0.00,VWS V14.01,2013-05-25 17:30:00,
2013-05-25 13:31:00,65.2,30.4,30.27,NW,309,0.0,0.0,27,0.00,,---,0.00,VWS V14.01,2013-05-25 17:31:00,
2013-05-25 13:36:00,65.2,33.0,30.26,NW,322,0.0,0.0,30,0.00,,---,0.00,VWS V14.01,2013-05-25 17:36:00,
2013-05-25 13:41:00,65.7,31.7,30.26,WNW,293,0.0,0.0,28,0.00,,---,0.00,VWS V14.01,2013-05-25 17:41:00,
2013-05-25 13:46:00,66.4,31.4,30.26,NW,309,0.0,0.0,27,0.00,,---,0.00,VWS V14.01,2013-05-25 17:46:00,
2013-05-25 13:51:00,67.0,33.7,30.25,North,5,0.0,0.0,29,0.00,,---,0.00,VWS V14.01,2013-05-25 17:51:00,
2013-05-25 13:56:00,67.2,33.0,30.25,WNW,284,0.0,0.0,28,0.00,,---,0.00,VWS V14.01,2013-05-25 17:56:00,
2013-05-25 14:00:00,67.4,30.4,30.25,NNW,336,0.0,0.0,25,0.00,,---,0.00,VWS V14.01,2013-05-25 18:00:00,
2013-05-25 14:01:00,67.4,32.3,30.24,North,360,0.0,0.0,27,0.00,,---,0.00,VWS V14.01,2013-05-25 18:01:00,
2013-05-25 14:06:00,67.7,34.3,30.24,WNW,298,0.0,0.0,29,0.00,,---,0.00,VWS V14.01,2013-05-25 18:06:00,
2013-05-25 14:11:00,68.0,32.8,30.25,WNW,295,0.0,0.0,27,0.00,,---,0.00,VWS V14.01,2013-05-25 18:11:00,
2013-05-25 14:16:00,68.3,32.1,30.24,West,271,0.0,0.0,26,0.00,,---,0.00,VWS V14.01,2013-05-25 18:16:00,
2013-05-25 14:21:00,68.5,31.3,30.24,WNW,282,0.0,0.0,25,0.00,,---,0.00,VWS V14.01,2013-05-25 18:21:00,
2013-05-25 14:26:00,68.5,33.2,30.24,NNW,346,0.0,0.0,27,0.00,,---,0.00,VWS V14.01,2013-05-25 18:26:00,
2013-05-25 14:30:00,68.5,31.3,30.24,West,276,0.0,0.0,25,0.00,,---,0.00,VWS V14.01,2013-05-25 18:30:00,
2013-05-25 14:31:00,68.7,35.2,30.24,NNW,327,0.0,0.0,29,0.00,,---,0.00,VWS V14.01,2013-05-25 18:31:00,
2013-05-25 14:36:00,68.9,30.6,30.24,NW,315,0.0,0.0,24,0.00,,---,0.00,VWS V14.01,2013-05-25 18:36:00,
2013-05-25 14:41:00,68.9,35.4,30.24,NNW,347,0.0,0.0,29,0.00,,---,0.00,VWS V14.01,2013-05-25 18:41:00,
2013-05-25 14:46:00,69.1,36.4,30.24,NW,309,0.0,0.0,30,0.00,,---,0.00,VWS V14.01,2013-05-25 18:46:00,
2013-05-25 14:51:00,69.3,32.0,30.24,NW,317,0.0,0.0,25,0.00,,---,0.00,VWS V14.01,2013-05-25 18:51:00,
2013-05-25 14:56:00,68.8,30.6,30.24,NW,321,0.0,0.0,24,0.00,,---,0.00,VWS V14.01,2013-05-25 18:56:00,
2013-05-25 15:00:00,68.5,32.3,30.24,NW,306,0.0,0.0,26,0.00,,---,0.00,VWS V14.01,2013-05-25 19:00:00,
2013-05-25 15:01:00,68.3,30.1,30.24,NE,36,0.0,0.0,24,0.00,,---,0.00,VWS V14.01,2013-05-25 19:01:00,
2013-05-25 15:06:00,68.0,28.9,30.24,WNW,298,0.0,0.0,23,0.00,,---,0.00,VWS V14.01,2013-05-25 19:06:00,
2013-05-25 15:11:00,68.2,35.6,30.24,NW,313,0.0,0.0,30,0.00,,---,0.00,VWS V14.01,2013-05-25 19:11:00,
2013-05-25 15:16:00,68.4,32.2,30.24,NW,317,0.0,0.0,26,0.00,,---,0.00,VWS V14.01,2013-05-25 19:16:00,
2013-05-25 15:21:00,68.5,33.2,30.24,ENE,63,0.0,0.0,27,0.00,,---,0.00,VWS V14.01,2013-05-25 19:21:00,
2013-05-25 15:26:00,68.5,31.3,30.23,North,10,0.0,0.0,25,0.00,,---,0.00,VWS V14.01,2013-05-25 19:26:00,
2013-05-25 15:30:00,68.8,32.5,30.23,NNW,346,0.0,0.0,26,0.00,,---,0.00,VWS V14.01,2013-05-25 19:30:00,
2013-05-25 15:31:00,68.9,31.7,30.23,NW,321,0.0,0.0,25,0.00,,---,0.00,VWS V14.01,2013-05-25 19:31:00,
2013-05-25 15:36:00,69.1,32.8,30.23,WNW,292,0.0,0.0,26,0.00,,---,0.00,VWS V14.01,2013-05-25 19:36:00,
2013-05-25 15:41:00,69.4,32.1,30.24,NW,317,0.0,0.0,25,0.00,,---,0.00,VWS V14.01,2013-05-25 19:41:00,
2013-05-25 15:46:00,69.4,34.0,30.23,WNW,291,0.0,0.0,27,0.00,,---,0.00,VWS V14.01,2013-05-25 19:46:00,
2013-05-25 15:51:00,69.4,32.1,30.23,West,270,0.0,0.0,25,0.00,,---,0.00,VWS V14.01,2013-05-25 19:51:00,
2013-05-25 15:56:00,69.5,34.1,30.23,WNW,302,0.0,0.0,27,0.00,,---,0.00,VWS V14.01,2013-05-25 19:56:00,
2013-05-25 16:00:00,69.5,32.2,30.23,NW,312,0.0,0.0,25,0.00,,---,0.00,VWS V14.01,2013-05-25 20:00:00,
2013-05-25 16:01:00,69.5,33.1,30.23,NW,314,0.0,0.0,26,0.00,,---,0.00,VWS V14.01,2013-05-25 20:01:00,
2013-05-25 16:06:00,69.2,29.9,30.22,WNW,288,0.0,0.0,23,0.00,,---,0.00,VWS V14.01,2013-05-25 20:06:00,
2013-05-25 16:11:00,69.1,31.8,30.22,North,5,0.0,0.0,25,0.00,,---,0.00,VWS V14.01,2013-05-25 20:11:00,
2013-05-25 16:16:00,69.2,31.9,30.22,North,5,0.0,0.0,25,0.00,,---,0.00,VWS V14.01,2013-05-25 20:16:00,
2013-05-25 16:21:00,69.3,31.0,30.22,WNW,301,0.0,0.0,24,0.00,,---,0.00,VWS V14.01,2013-05-25 20:21:00,
2013-05-25 16:26:00,69.4,34.0,30.22,North,360,0.0,0.0,27,0.00,,---,0.00,VWS V14.01,2013-05-25 20:26:00,
2013-05-25 16:30:00,69.5,33.1,30.22,WNW,295,0.0,0.0,26,0.00,,---,0.00,VWS V14.01,2013-05-25 20:30:00,
2013-05-25 16:31:00,69.6,32.2,30.22,WNW,295,0.0,0.0,25,0.00,,---,0.00,VWS V14.01,2013-05-25 20:31:00,
2013-05-25 16:36:00,69.7,32.3,30.22,WNW,298,0.0,0.0,25,0.00,,---,0.00,VWS V14.01,2013-05-25 20:36:00,
2013-05-25 16:41:00,69.8,31.4,30.22,West,274,0.0,0.0,24,0.00,,---,0.00,VWS V14.01,2013-05-25 20:41:00,
2013-05-25 16:46:00,69.4,31.1,30.22,WNW,291,0.0,0.0,24,0.00,,---,0.00,VWS V14.01,2013-05-25 20:46:00,
2013-05-25 16:51:00,69.2,30.9,30.22,NW,315,0.0,0.0,24,0.00,,---,0.00,VWS V14.01,2013-05-25 20:51:00,
2013-05-25 16:56:00,69.0,28.6,30.21,WNW,294,0.0,0.0,22,0.00,,---,0.00,VWS V14.01,2013-05-25 20:56:00,
2013-05-25 17:00:00,69.0,29.7,30.21,West,276,0.0,0.0,23,0.00,,---,0.00,VWS V14.01,2013-05-25 21:00:00,
2013-05-25 17:01:00,69.0,31.8,30.22,West,276,0.0,0.0,25,0.00,,---,0.00,VWS V14.01,2013-05-25 21:01:00,
2013-05-25 17:06:00,69.1,30.8,30.22,NW,316,0.0,0.0,24,0.00,,---,0.00,VWS V14.01,2013-05-25 21:06:00,
2013-05-25 17:11:00,69.1,28.7,30.22,NW,313,0.0,0.0,22,0.00,,---,0.00,VWS V14.01,2013-05-25 21:11:00,
2013-05-25 17:16:00,68.8,24.9,30.21,NW,320,0.0,0.0,19,0.00,,---,0.00,VWS V14.01,2013-05-25 21:16:00,
2013-05-25 17:21:00,68.5,27.1,30.21,NNW,337,0.0,0.0,21,0.00,,---,0.00,VWS V14.01,2013-05-25 21:21:00,
2013-05-25 17:26:00,68.2,27.9,30.21,West,267,0.0,0.0,22,0.00,,---,0.00,VWS V14.01,2013-05-25 21:26:00,
2013-05-25 17:30:00,68.1,28.9,30.22,NNW,341,0.0,0.0,23,0.00,,---,0.00,VWS V14.01,2013-05-25 21:30:00,
2013-05-25 17:31:00,67.9,26.6,30.21,NNW,345,0.0,0.0,21,0.00,,---,0.00,VWS V14.01,2013-05-25 21:31:00,
2013-05-25 17:36:00,67.7,30.6,30.22,WNW,287,0.0,0.0,25,0.00,,---,0.00,VWS V14.01,2013-05-25 21:36:00,
2013-05-25 17:41:00,67.6,27.4,30.22,NNW,327,0.0,0.0,22,0.00,,---,0.00,VWS V14.01,2013-05-25 21:41:00,
2013-05-25 17:46:00,67.4,29.4,30.22,WNW,290,0.0,0.0,24,0.00,,---,0.00,VWS V14.01,2013-05-25 21:46:00,
2013-05-25 17:51:00,67.2,31.2,30.22,NW,323,0.0,0.0,26,0.00,,---,0.00,VWS V14.01,2013-05-25 21:51:00,
2013-05-25 17:56:00,66.8,29.9,30.22,West,272,0.0,0.0,25,0.00,,---,0.00,VWS V14.01,2013-05-25 21:56:00,
2013-05-25 18:00:00,66.5,28.6,30.22,West,273,0.0,0.0,24,0.00,,---,0.00,VWS V14.01,2013-05-25 22:00:00,
2013-05-25 18:01:00,66.3,28.5,30.22,NW,310,0.0,0.0,24,0.00,,---,0.00,VWS V14.01,2013-05-25 22:01:00,
2013-05-25 18:06:00,65.9,30.1,30.22,NNW,345,0.0,0.0,26,0.00,,---,0.00,VWS V14.01,2013-05-25 22:06:00,
2013-05-25 18:11:00,65.5,30.7,30.22,North,360,0.0,0.0,27,0.00,,---,0.00,VWS V14.01,2013-05-25 22:11:00,
2013-05-25 18:16:00,65.2,29.5,30.22,NNW,334,0.0,0.0,26,0.00,,---,0.00,VWS V14.01,2013-05-25 22:16:00,
2013-05-25 18:21:00,65.0,32.0,30.23,NNW,346,0.0,0.0,29,0.00,,---,0.00,VWS V14.01,2013-05-25 22:21:00,
2013-05-25 18:26:00,64.9,31.0,30.23,NW,318,0.0,0.0,28,0.00,,---,0.00,VWS V14.01,2013-05-25 22:26:00,
2013-05-25 18:30:00,64.9,30.1,30.23,NW,316,0.0,0.0,27,0.00,,---,0.00,VWS V14.01,2013-05-25 22:30:00,
2013-05-25 18:31:00,64.9,31.0,30.23,NW,316,0.0,0.0,28,0.00,,---,0.00,VWS V14.01,2013-05-25 22:31:00,
2013-05-25 18:36:00,64.8,33.5,30.23,NNW,348,0.0,0.0,31,0.00,,---,0.00,VWS V14.01,2013-05-25 22:36:00,
2013-05-25 18:41:00,64.8,31.8,30.23,NNW,330,0.0,0.0,29,0.00,,---,0.00,VWS V14.01,2013-05-25 22:41:00,
2013-05-25 18:46:00,64.6,31.6,30.24,NW,304,0.0,0.0,29,0.00,,---,0.00,VWS V14.01,2013-05-25 22:46:00,
2013-05-25 18:51:00,64.7,30.9,30.24,NW,321,0.0,0.0,28,0.00,,---,0.00,VWS V14.01,2013-05-25 22:51:00,
2013-05-25 18:56:00,64.8,31.0,30.24,North,355,0.0,0.0,28,0.00,,---,0.00,VWS V14.01,2013-05-25 22:56:00,
2013-05-25 19:00:00,64.9,30.1,30.24,NW,311,0.0,0.0,27,0.00,,---,0.00,VWS V14.01,2013-05-25 23:00:00,
2013-05-25 19:01:00,64.9,31.0,30.24,NW,325,0.0,0.0,28,0.00,,---,0.00,VWS V14.01,2013-05-25 23:01:00,
2013-05-25 19:06:00,64.7,33.4,30.24,WNW,291,0.0,0.0,31,0.00,,---,0.00,VWS V14.01,2013-05-25 23:06:00,
2013-05-25 19:11:00,64.3,31.4,30.24,NNW,331,0.0,0.0,29,0.00,,---,0.00,VWS V14.01,2013-05-25 23:11:00,
2013-05-25 19:16:00,63.8,31.8,30.24,West,281,0.0,0.0,30,0.00,,---,0.00,VWS V14.01,2013-05-25 23:16:00,
2013-05-25 19:21:00,63.5,32.3,30.24,West,278,0.0,0.0,31,0.00,,---,0.00,VWS V14.01,2013-05-25 23:21:00,
2013-05-25 19:26:00,63.1,32.8,30.24,North,355,0.0,0.0,32,0.00,,---,0.00,VWS V14.01,2013-05-25 23:26:00,
2013-05-25 19:30:00,62.9,32.6,30.24,North,5,0.0,0.0,32,0.00,,---,0.00,VWS V14.01,2013-05-25 23:30:00,
2013-05-25 19:31:00,62.7,31.6,30.24,NW,309,0.0,0.0,31,0.00,,---,0.00,VWS V14.01,2013-05-25 23:31:00,
2013-05-25 19:36:00,62.5,31.5,30.24,NW,323,0.0,0.0,31,0.00,,---,0.00,VWS V14.01,2013-05-25 23:36:00,
2013-05-25 19:41:00,62.3,31.3,30.24,West,275,0.0,0.0,31,0.00,,---,0.00,VWS V14.01,2013-05-25 23:41:00,
2013-05-25 19:46:00,62.2,32.0,30.24,North,355,0.0,0.0,32,0.00,,---,0.00,VWS V14.01,2013-05-25 23:46:00,
2013-05-25 19:51:00,62.1,32.7,30.24,WNW,300,0.0,0.0,33,0.00,,---,0.00,VWS V14.01,2013-05-25 23:51:00,
2013-05-25 19:56:00,62.1,32.7,30.24,North,11,0.0,0.0,33,0.00,,---,0.00,VWS V14.01,2013-05-25 23:56:00,
2013-05-25 20:00:00,62.1,31.9,30.24,North,5,0.0,0.0,32,0.00,,---,0.00,VWS V14.01,2013-05-26 00:00:00,
2013-05-25 20:01:00,62.1,32.7,30.24,NNE,17,0.0,0.0,33,0.00,,---,0.00,VWS V14.01,2013-05-26 00:01:00,
2013-05-25 20:06:00,62.0,34.1,30.24,NE,50,0.0,0.0,35,0.00,,---,0.00,VWS V14.01,2013-05-26 00:06:00,
2013-05-25 20:11:00,61.7,33.1,30.24,NNW,348,0.0,0.0,34,0.00,,---,0.00,VWS V14.01,2013-05-26 00:11:00,
2013-05-25 20:16:00,61.5,32.9,30.24,WNW,288,0.0,0.0,34,0.00,,---,0.00,VWS V14.01,2013-05-26 00:16:00,
2013-05-25 20:21:00,61.2,32.6,30.25,NW,323,0.0,0.0,34,0.00,,---,0.00,VWS V14.01,2013-05-26 00:21:00,
2013-05-25 20:26:00,60.9,33.8,30.24,NNW,335,0.0,0.0,36,0.00,,---,0.00,VWS V14.01,2013-05-26 00:26:00,
2013-05-25 20:30:00,60.7,33.6,30.25,WNW,302,0.0,0.0,36,0.00,,---,0.00,VWS V14.01,2013-05-26 00:30:00,
2013-05-25 20:31:00,60.5,33.4,30.24,NW,313,0.0,0.0,36,0.00,,---,0.00,VWS V14.01,2013-05-26 00:31:00,
2013-05-25 20:36:00,60.1,33.1,30.24,NW,314,0.0,0.0,36,0.00,,---,0.00,VWS V14.01,2013-05-26 00:36:00,
2013-05-25 20:41:00,59.7,34.1,30.24,NNW,331,0.0,0.0,38,0.00,,---,0.00,VWS V14.01,2013-05-26 00:41:00,
2013-05-25 20:46:00,59.3,33.7,30.24,NNW,340,0.0,0.0,38,0.00,,---,0.00,VWS V14.01,2013-05-26 00:46:00,
2013-05-25 20:51:00,59.0,34.1,30.24,NW,315,0.0,0.0,39,0.00,,---,0.00,VWS V14.01,2013-05-26 00:51:00,
2013-05-25 20:56:00,58.9,34.0,30.24,WNW,289,0.0,0.0,39,0.00,,---,0.00,VWS V14.01,2013-05-26 00:56:00,
2013-05-25 21:00:00,58.9,34.0,30.25,WNW,290,0.0,0.0,39,0.00,,---,0.00,VWS V14.01,2013-05-26 01:00:00,
2013-05-25 21:01:00,58.9,34.0,30.25,WNW,290,0.0,0.0,39,0.00,,---,0.00,VWS V14.01,2013-05-26 01:01:00,
2013-05-25 21:06:00,58.8,33.9,30.25,WNW,290,0.0,0.0,39,0.00,,---,0.00,VWS V14.01,2013-05-26 01:06:00,
2013-05-25 21:11:00,58.9,34.0,30.25,WNW,291,0.0,0.0,39,0.00,,---,0.00,VWS V14.01,2013-05-26 01:11:00,
2013-05-25 21:16:00,58.8,34.5,30.25,WNW,290,0.0,0.0,40,0.00,,---,0.00,VWS V14.01,2013-05-26 01:16:00,
2013-05-25 21:21:00,58.5,38.4,30.25,NW,311,0.0,0.0,47,0.00,,---,0.00,VWS V14.01,2013-05-26 01:21:00,
2013-05-25 21:26:00,58.1,35.7,30.25,WNW,295,0.0,0.0,43,0.00,,---,0.00,VWS V14.01,2013-05-26 01:26:00,
2013-05-25 21:30:00,58.2,35.2,30.25,NW,318,0.0,0.0,42,0.00,,---,0.00,VWS V14.01,2013-05-26 01:30:00,
2013-05-25 21:31:00,58.2,35.8,30.25,NNW,338,0.0,0.0,43,0.00,,---,0.00,VWS V14.01,2013-05-26 01:31:00,
2013-05-25 21:36:00,58.2,34.6,30.25,WNW,290,0.0,0.0,41,0.00,,---,0.00,VWS V14.01,2013-05-26 01:36:00,
2013-05-25 21:41:00,58.3,34.7,30.25,NNW,336,0.0,0.0,41,0.00,,---,0.00,VWS V14.01,2013-05-26 01:41:00,
2013-05-25 21:46:00,58.4,34.8,30.25,NNW,344,0.0,0.0,41,0.00,,---,0.00,VWS V14.01,2013-05-26 01:46:00,
2013-05-25 21:51:00,58.2,35.2,30.25,NNW,330,0.0,0.0,42,0.00,,---,0.00,VWS V14.01,2013-05-26 01:51:00,
2013-05-25 21:56:00,58.1,35.7,30.26,NNW,336,0.0,0.0,43,0.00,,---,0.00,VWS V14.01,2013-05-26 01:56:00,
2013-05-25 22:00:00,58.0,35.7,30.26,North,360,0.0,0.0,43,0.00,,---,0.00,VWS V14.01,2013-05-26 02:00:00,
2013-05-25 22:01:00,58.1,35.7,30.26,NNW,343,0.0,0.0,43,0.00,,---,0.00,VWS V14.01,2013-05-26 02:01:00,
2013-05-25 22:06:00,58.0,35.7,30.26,NNW,331,0.0,0.0,43,0.00,,---,0.00,VWS V14.01,2013-05-26 02:06:00,
2013-05-25 22:11:00,57.9,36.1,30.27,North,360,0.0,0.0,44,0.00,,---,0.00,VWS V14.01,2013-05-26 02:11:00,
2013-05-25 22:16:00,57.8,36.0,30.27,North,360,0.0,0.0,44,0.00,,---,0.00,VWS V14.01,2013-05-26 02:16:00,
2013-05-25 22:21:00,57.7,36.0,30.27,NW,318,0.0,0.0,44,0.00,,---,0.00,VWS V14.01,2013-05-26 02:21:00,
2013-05-25 22:26:00,57.6,37.0,30.28,NNW,329,0.0,0.0,46,0.00,,---,0.00,VWS V14.01,2013-05-26 02:26:00,
2013-05-25 22:30:00,57.5,36.9,30.28,NNW,327,0.0,0.0,46,0.00,,---,0.00,VWS V14.01,2013-05-26 02:30:00,
2013-05-25 22:31:00,57.4,37.3,30.28,NNW,327,0.0,0.0,47,0.00,,---,0.00,VWS V14.01,2013-05-26 02:31:00,
2013-05-25 22:36:00,56.9,36.9,30.28,NNW,327,0.0,0.0,47,0.00,,---,0.00,VWS V14.01,2013-05-26 02:36:00,
2013-05-25 22:41:00,56.6,37.2,30.28,NNW,347,0.0,0.0,48,0.00,,---,0.00,VWS V14.01,2013-05-26 02:41:00,
2013-05-25 22:46:00,56.4,36.4,30.28,NNW,347,0.0,0.0,47,0.00,,---,0.00,VWS V14.01,2013-05-26 02:46:00,
2013-05-25 22:51:00,56.2,37.3,30.28,NNE,26,0.0,0.0,49,0.00,,---,0.00,VWS V14.01,2013-05-26 02:51:00,
2013-05-25 22:56:00,56.0,37.6,30.28,NNE,26,0.0,0.0,50,0.00,,---,0.00,VWS V14.01,2013-05-26 02:56:00,
2013-05-25 23:00:00,55.9,37.5,30.28,NNE,26,0.0,0.0,50,0.00,,---,0.00,VWS V14.01,2013-05-26 03:00:00,
2013-05-25 23:01:00,55.9,37.0,30.28,NNE,26,0.0,0.0,49,0.00,,---,0.00,VWS V14.01,2013-05-26 03:01:00,
2013-05-25 23:06:00,55.7,36.3,30.28,NNE,26,0.0,0.0,48,0.00,,---,0.00,VWS V14.01,2013-05-26 03:06:00,
2013-05-25 23:11:00,55.5,38.2,30.28,NNW,329,0.0,0.0,52,0.00,,---,0.00,VWS V14.01,2013-05-26 03:11:00,
2013-05-25 23:16:00,55.3,38.0,30.28,NNW,329,0.0,0.0,52,0.00,,---,0.00,VWS V14.01,2013-05-26 03:16:00,
2013-05-25 23:21:00,55.2,37.4,30.29,NNW,329,0.0,0.0,51,0.00,,---,0.00,VWS V14.01,2013-05-26 03:21:00,
2013-05-25 23:26:00,55.2,37.9,30.29,NNE,32,0.0,0.0,52,0.00,,---,0.00,VWS V14.01,2013-05-26 03:26:00,
2013-05-25 23:30:00,55.3,37.5,30.29,NNW,340,0.0,0.0,51,0.00,,---,0.00,VWS V14.01,2013-05-26 03:30:00,
2013-05-25 23:31:00,55.3,37.5,30.29,NNW,340,0.0,0.0,51,0.00,,---,0.00,VWS V14.01,2013-05-26 03:31:00,
2013-05-25 23:36:00,55.3,38.0,30.29,NNW,327,0.0,0.0,52,0.00,,---,0.00,VWS V14.01,2013-05-26 03:36:00,
2013-05-25 23:41:00,55.3,38.0,30.28,NNW,327,0.0,0.0,52,0.00,,---,0.00,VWS V14.01,2013-05-26 03:41:00,
2013-05-25 23:46:00,55.2,37.9,30.28,NNW,327,0.0,0.0,52,0.00,,---,0.00,VWS V14.01,2013-05-26 03:46:00,
2013-05-25 23:51:00,55.1,37.8,30.28,NNW,329,0.0,0.0,52,0.00,,---,0.00,VWS V14.01,2013-05-26 03:51:00,
2013-05-25 23:56:00,55.0,38.2,30.29,North,360,0.0,0.0,53,0.00,,---,0.00,VWS V14.01,2013-05-26 03:56:00,